Time;durP1;ratioP1;P1;durP2;ratioP2;P2;SDS_P1;SDS_P2;PMS_P1;PMS_P2;Temp;Humidity;BMP_temperature;BMP_pressure;BME280_temperature;BME280_humidity;BME280_pressure;Samples;Min_cycle;Max_cycle;Signal;HPM_P1;HPM_P2
2022/10/01 00:00:54;;;;;;;20.58;8.05;;;;;;;12.36;68.81;100235.00;5052264;28;20041;-57
2022/10/01 00:03:23;;;;;;;15.43;7.55;;;;;;;12.31;69.58;100238.19;5052059;28;20634;-57
2022/10/01 00:06:00;;;;;;;16.55;7.97;;;;;;;12.41;69.96;100232.66;5052013;28;20044;-57
2022/10/01 00:08:28;;;;;;;18.13;7.45;;;;;;;12.33;71.43;100238.84;5053053;28;20044;-57
2022/10/01 00:10:55;;;;;;;18.02;8.00;;;;;;;12.38;73.65;100241.81;5052702;28;20045;-58
2022/10/01 00:13:22;;;;;;;18.27;8.18;;;;;;;12.34;73.42;100231.72;5055569;28;20041;-58
2022/10/01 00:15:48;;;;;;;19.13;9.40;;;;;;;12.28;74.93;100228.75;5056500;28;20107;-57
2022/10/01 00:18:15;;;;;;;17.30;8.93;;;;;;;12.15;76.95;100222.34;5056562;28;20056;-58
2022/10/01 00:20:42;;;;;;;16.10;8.32;;;;;;;12.19;77.50;100224.50;5056932;28;20483;-57
2022/10/01 00:23:10;;;;;;;18.90;9.27;;;;;;;12.12;78.54;100217.41;5056478;28;20048;-57
2022/10/01 00:25:38;;;;;;;19.20;9.88;;;;;;;12.05;79.60;100218.09;5056804;28;20049;-57
2022/10/01 00:28:04;;;;;;;24.75;10.38;;;;;;;11.83;82.59;100209.06;5056386;28;20071;-57
2022/10/01 00:30:31;;;;;;;19.35;9.93;;;;;;;11.74;82.17;100204.81;5044248;28;20049;-57
2022/10/01 00:32:59;;;;;;;22.65;10.15;;;;;;;11.76;81.62;100207.28;5036395;28;20038;-57
2022/10/01 00:35:26;;;;;;;23.73;10.07;;;;;;;11.72;85.30;100191.69;5035796;28;20099;-57
2022/10/01 00:37:52;;;;;;;19.08;10.48;;;;;;;11.65;85.22;100192.56;5036256;28;20124;-57
2022/10/01 00:40:21;;;;;;;21.48;10.13;;;;;;;11.74;85.60;100183.56;5036208;28;20096;-57
2022/10/01 00:42:48;;;;;;;22.83;10.32;;;;;;;11.52;86.44;100171.88;5036501;28;20516;-57
2022/10/01 00:45:15;;;;;;;24.02;10.43;;;;;;;11.57;85.21;100160.72;5036145;28;20095;-57
2022/10/01 00:47:54;;;;;;;21.48;10.80;;;;;;;11.63;88.99;100146.75;5036258;28;20699;-57
2022/10/01 00:50:31;;;;;;;20.65;10.75;;;;;;;11.41;88.27;100135.91;5036133;28;20072;-57
2022/10/01 00:53:04;;;;;;;25.52;12.02;;;;;;;11.41;90.60;100135.91;4998764;28;20088;-57
2022/10/01 00:55:35;;;;;;;26.63;12.40;;;;;;;11.44;91.46;100129.41;5036207;28;20057;-58
2022/10/01 00:58:03;;;;;;;26.60;11.50;;;;;;;11.53;90.74;100136.34;5035778;28;20065;-57
2022/10/01 01:00:31;;;;;;;24.60;12.02;;;;;;;11.36;91.86;100130.31;5036289;28;20140;-57
2022/10/01 01:02:58;;;;;;;20.08;11.38;;;;;;;11.38;93.22;100114.19;5035572;28;20037;-58
2022/10/01 01:05:24;;;;;;;24.67;11.88;;;;;;;11.32;92.61;100113.06;5035256;28;20103;-57
2022/10/01 01:07:52;;;;;;;26.05;11.52;;;;;;;11.32;93.06;100107.75;5018395;28;20049;-57
2022/10/01 01:10:33;;;;;;;17.88;10.70;;;;;;;11.36;93.48;100109.06;5036038;28;20483;-57
2022/10/01 01:13:14;;;;;;;18.75;9.52;;;;;;;11.36;93.31;100114.38;5018293;28;20495;-57
2022/10/01 01:15:54;;;;;;;16.17;9.07;;;;;;;11.42;93.28;100110.19;5035932;28;20045;-58
2022/10/01 01:19:01;;;;;;;23.17;9.43;;;;;;;11.27;93.85;100102.13;5017907;28;20052;-58
2022/10/01 01:21:46;;;;;;;19.05;8.98;;;;;;;11.16;94.06;100097.22;5042005;28;20072;-58
2022/10/01 01:24:37;;;;;;;18.13;9.45;;;;;;;11.13;95.03;100077.13;5046370;28;20088;-58
2022/10/01 01:27:28;;;;;;;15.82;8.80;;;;;;;11.06;94.67;100066.41;5026925;28;20064;-57
2022/10/01 01:30:15;;;;;;;15.25;8.73;;;;;;;11.08;95.28;100055.63;5033698;28;20048;-58
2022/10/01 01:32:51;;;;;;;14.02;8.65;;;;;;;11.08;95.31;100047.66;5034759;28;20060;-57
2022/10/01 01:35:30;;;;;;;17.08;8.32;;;;;;;11.11;94.67;100036.69;5035632;28;20124;-57
2022/10/01 01:38:02;;;;;;;20.30;8.82;;;;;;;10.83;95.11;100023.88;5035117;28;20136;-57
2022/10/01 01:40:34;;;;;;;15.15;8.57;;;;;;;10.87;97.75;100011.91;5035738;28;20107;-57
2022/10/01 01:43:06;;;;;;;14.07;8.52;;;;;;;10.74;96.28;100001.88;5034857;28;20065;-57
2022/10/01 01:45:38;;;;;;;16.35;8.57;;;;;;;10.77;97.50;99987.44;5046220;28;20053;-57
2022/10/01 01:48:07;;;;;;;17.77;8.48;;;;;;;10.79;97.84;99972.19;5054952;28;20048;-57
2022/10/01 01:50:42;;;;;;;14.10;8.60;;;;;;;10.69;97.21;99961.78;5047658;28;20049;-57
2022/10/01 01:53:10;;;;;;;16.50;9.13;;;;;;;10.75;98.41;99970.84;5016723;28;20047;-57
2022/10/01 01:55:38;;;;;;;21.73;9.38;;;;;;;10.75;99.16;99981.47;5043409;28;20080;-57
2022/10/01 01:58:04;;;;;;;18.88;9.55;;;;;;;10.82;98.26;99971.81;5035053;28;20057;-57
2022/10/01 02:00:32;;;;;;;19.67;9.05;;;;;;;10.78;97.85;99981.13;5038130;28;20060;-57
2022/10/01 02:02:59;;;;;;;15.57;9.63;;;;;;;10.83;99.04;99980.63;5021939;28;20049;-57
2022/10/01 02:05:34;;;;;;;18.38;10.43;;;;;;;10.92;99.23;99984.88;5043699;28;20053;-57
2022/10/01 02:08:30;;;;;;;22.45;11.13;;;;;;;10.89;98.10;99990.53;5034915;28;20140;-58
2022/10/01 02:11:12;;;;;;;20.23;10.90;;;;;;;11.02;99.52;99992.59;5033970;28;20045;-58
2022/10/01 02:14:19;;;;;;;18.85;10.15;;;;;;;11.02;99.30;100000.56;5034834;28;20073;-58
2022/10/01 02:17:00;;;;;;;17.65;9.13;;;;;;;11.00;97.45;100007.88;5033661;28;20442;-57
2022/10/01 02:19:57;;;;;;;16.17;8.95;;;;;;;10.97;98.60;99998.47;5034272;28;20048;-58
2022/10/01 02:22:41;;;;;;;19.77;8.75;;;;;;;11.08;96.87;100013.16;5033596;28;20050;-57
2022/10/01 02:25:10;;;;;;;17.33;9.15;;;;;;;10.91;98.53;100002.63;5034512;28;20052;-57
2022/10/01 02:27:43;;;;;;;29.90;9.93;;;;;;;10.86;99.80;100009.44;5034493;28;20054;-57
2022/10/01 02:30:11;;;;;;;17.15;9.50;;;;;;;10.90;99.44;100014.22;5043654;28;20041;-57
2022/10/01 02:32:40;;;;;;;21.55;9.98;;;;;;;10.92;99.37;100012.22;5052186;28;20049;-57
2022/10/01 02:35:11;;;;;;;17.38;9.48;;;;;;;11.02;100.00;100006.69;5033696;28;20404;-58
2022/10/01 02:37:40;;;;;;;19.50;10.20;;;;;;;11.08;100.00;99997.22;5034488;28;20515;-58
2022/10/01 02:40:13;;;;;;;18.30;9.75;;;;;;;11.08;100.00;99994.56;5054079;28;20053;-58
2022/10/01 02:42:45;;;;;;;19.40;9.98;;;;;;;10.96;100.00;99988.81;5051654;28;20056;-57
2022/10/01 02:45:15;;;;;;;20.65;9.85;;;;;;;10.92;100.00;99982.22;5036225;28;20410;-57
2022/10/01 02:47:48;;;;;;;17.60;8.98;;;;;;;10.92;100.00;99983.03;5038270;28;20045;-57
2022/10/01 02:50:15;;;;;;;19.10;8.75;;;;;;;11.04;100.00;99948.97;5033945;28;20056;-57
2022/10/01 02:52:48;;;;;;;16.75;7.55;;;;;;;10.99;100.00;99938.06;4995689;28;20077;-58
2022/10/01 02:55:21;;;;;;;17.77;7.60;;;;;;;11.01;100.00;99938.72;5034020;28;20037;-57
2022/10/01 02:57:48;;;;;;;13.88;7.07;;;;;;;10.84;100.00;99940.66;5034667;28;20057;-57
2022/10/01 03:00:20;;;;;;;14.52;7.43;;;;;;;10.81;100.00;99950.78;5053823;28;20560;-59
2022/10/01 03:02:48;;;;;;;15.23;6.95;;;;;;;10.85;100.00;99947.59;5020626;28;20388;-57
2022/10/01 03:05:17;;;;;;;15.30;7.07;;;;;;;10.76;100.00;99933.53;5033222;28;20048;-57
2022/10/01 03:07:43;;;;;;;14.63;6.57;;;;;;;10.86;100.00;99911.25;5016033;28;20054;-57
2022/10/01 03:10:10;;;;;;;13.73;7.00;;;;;;;10.86;100.00;99904.16;5033902;28;20513;-58
2022/10/01 03:12:42;;;;;;;12.70;6.65;;;;;;;10.77;100.00;99907.88;5036788;28;20049;-57
2022/10/01 03:15:10;;;;;;;12.32;6.28;;;;;;;10.65;100.00;99909.25;5033166;28;20041;-58
2022/10/01 03:17:37;;;;;;;14.88;5.72;;;;;;;10.72;100.00;99910.22;5037295;28;20099;-56
2022/10/01 03:20:05;;;;;;;14.32;6.03;;;;;;;10.70;100.00;99902.41;5039162;28;20059;-57
2022/10/01 03:22:32;;;;;;;14.13;5.72;;;;;;;10.84;100.00;99906.16;5036430;28;20033;-57
2022/10/01 03:24:59;;;;;;;12.15;6.13;;;;;;;10.69;100.00;99907.91;5050972;28;20052;-57
2022/10/01 03:27:26;;;;;;;15.25;6.13;;;;;;;10.88;100.00;99901.31;5033884;28;20056;-58
2022/10/01 03:29:52;;;;;;;14.27;6.47;;;;;;;10.77;100.00;99878.69;5021846;28;20048;-57
2022/10/01 03:32:19;;;;;;;12.50;5.82;;;;;;;10.83;100.00;99880.63;5035265;28;20124;-57
2022/10/01 03:34:46;;;;;;;13.82;5.40;;;;;;;10.84;100.00;99865.50;5032171;28;20446;-57
2022/10/01 03:37:13;;;;;;;11.70;5.50;;;;;;;10.74;100.00;99869.22;5052991;28;20045;-57
2022/10/01 03:39:39;;;;;;;9.65;5.13;;;;;;;10.73;100.00;99864.94;5045487;28;20598;-57
2022/10/01 03:42:06;;;;;;;14.88;5.50;;;;;;;10.69;100.00;99852.19;5041604;28;20049;-57
2022/10/01 03:44:32;;;;;;;9.55;4.97;;;;;;;10.58;100.00;99850.78;5053294;28;20048;-57
2022/10/01 03:47:00;;;;;;;11.05;5.03;;;;;;;10.66;100.00;99849.88;5052793;28;20041;-57
2022/10/01 03:49:26;;;;;;;10.13;4.78;;;;;;;10.67;100.00;99846.25;5034858;28;20152;-56
2022/10/01 03:51:53;;;;;;;13.23;5.03;;;;;;;10.74;100.00;99839.22;5007875;28;20087;-57
2022/10/01 03:54:20;;;;;;;9.65;4.63;;;;;;;10.76;100.00;99831.91;5029108;28;20052;-56
2022/10/01 03:56:47;;;;;;;12.93;5.72;;;;;;;10.70;100.00;99844.06;5046184;28;20048;-57
2022/10/01 03:59:14;;;;;;;12.63;5.40;;;;;;;10.75;100.00;99827.59;5052863;28;20048;-56
2022/10/01 04:01:41;;;;;;;14.50;5.78;;;;;;;10.79;100.00;99834.22;5039231;28;20056;-57
2022/10/01 04:04:09;;;;;;;10.20;5.57;;;;;;;10.76;100.00;99834.56;5050726;28;20128;-56
2022/10/01 04:06:35;;;;;;;13.63;5.70;;;;;;;10.78;100.00;99837.06;5046263;28;20534;-57
2022/10/01 04:09:02;;;;;;;12.98;6.18;;;;;;;10.77;100.00;99830.94;5052670;28;20410;-57
2022/10/01 04:11:29;;;;;;;10.43;5.68;;;;;;;10.68;100.00;99832.00;5045887;28;20056;-57
2022/10/01 04:13:57;;;;;;;11.02;5.88;;;;;;;10.64;100.00;99835.97;5033131;28;20046;-57
2022/10/01 04:16:24;;;;;;;10.85;5.60;;;;;;;10.63;100.00;99837.81;5032771;28;20373;-56
2022/10/01 04:18:50;;;;;;;11.82;6.03;;;;;;;10.72;100.00;99852.66;5032807;28;20068;-56
2022/10/01 04:21:18;;;;;;;11.45;5.70;;;;;;;10.66;100.00;99865.81;5032607;28;20507;-57
2022/10/01 04:23:45;;;;;;;11.13;5.93;;;;;;;10.73;100.00;99862.28;5032724;28;20549;-57
2022/10/01 04:26:11;;;;;;;16.40;5.90;;;;;;;10.75;100.00;99848.81;5036106;28;20050;-58
2022/10/01 04:28:38;;;;;;;18.35;5.78;;;;;;;10.78;100.00;99829.09;5032692;28;20041;-58
2022/10/01 04:31:23;;;;;;;8.48;4.60;;;;;;;10.77;100.00;99841.53;5035672;28;20526;-58
2022/10/01 04:33:52;;;;;;;10.55;5.38;;;;;;;10.85;100.00;99860.03;5032170;28;20087;-57
2022/10/01 04:36:19;;;;;;;10.15;4.63;;;;;;;10.94;100.00;99866.13;5032982;28;20463;-57
2022/10/01 04:38:46;;;;;;;9.70;4.90;;;;;;;11.01;100.00;99861.75;5031979;28;20627;-58
2022/10/01 04:41:13;;;;;;;8.85;4.60;;;;;;;11.00;100.00;99865.38;5032927;28;20049;-57
2022/10/01 04:43:40;;;;;;;10.38;4.93;;;;;;;11.04;100.00;99853.44;5032084;28;20088;-57
2022/10/01 04:46:07;;;;;;;13.95;5.00;;;;;;;11.04;100.00;99852.59;5032346;28;20414;-57
2022/10/01 04:48:33;;;;;;;11.27;4.57;;;;;;;11.00;100.00;99851.31;5032094;28;20053;-57
2022/10/01 04:51:00;;;;;;;11.55;4.85;;;;;;;11.03;100.00;99845.66;4986156;28;20523;-57
2022/10/01 04:53:27;;;;;;;8.30;4.15;;;;;;;11.07;100.00;99837.13;5039870;28;20043;-57
2022/10/01 04:55:54;;;;;;;7.88;3.92;;;;;;;11.09;100.00;99826.34;5051305;28;20107;-57
2022/10/01 04:58:21;;;;;;;11.85;4.05;;;;;;;11.07;100.00;99826.53;5052997;28;20041;-57
2022/10/01 05:00:48;;;;;;;8.15;3.55;;;;;;;11.07;100.00;99821.22;5056303;28;20045;-57
2022/10/01 05:03:16;;;;;;;9.68;3.90;;;;;;;11.07;100.00;99818.56;5065963;28;20048;-57
2022/10/01 05:05:44;;;;;;;7.25;3.60;;;;;;;11.23;100.00;99822.91;5075669;28;20057;-57
2022/10/01 05:08:11;;;;;;;7.68;3.00;;;;;;;11.27;100.00;99826.00;5060888;28;20544;-57
2022/10/01 05:10:37;;;;;;;7.57;3.30;;;;;;;11.22;100.00;99826.53;5055620;28;20041;-57
2022/10/01 05:13:04;;;;;;;8.52;3.20;;;;;;;11.18;100.00;99825.25;5055727;28;20041;-57
2022/10/01 05:15:31;;;;;;;9.25;3.38;;;;;;;11.21;100.00;99827.56;5055688;28;20049;-58
2022/10/01 05:17:58;;;;;;;8.60;3.47;;;;;;;11.23;100.00;99825.56;5054921;28;20437;-57
2022/10/01 05:20:26;;;;;;;7.63;3.17;;;;;;;11.27;100.00;99831.31;5055394;28;20483;-57
2022/10/01 05:22:53;;;;;;;12.02;3.28;;;;;;;11.24;100.00;99835.19;5066739;28;20052;-57
2022/10/01 05:25:20;;;;;;;11.07;3.00;;;;;;;11.26;100.00;99827.00;5075181;28;20441;-57
2022/10/01 05:27:46;;;;;;;9.65;2.95;;;;;;;11.32;100.00;99827.13;5062845;28;20056;-57
2022/10/01 05:30:22;;;;;;;7.45;2.45;;;;;;;11.36;100.00;99838.19;5062784;28;20072;-57
2022/10/01 05:32:55;;;;;;;8.70;2.35;;;;;;;11.47;100.00;99829.78;5055777;28;20045;-59
2022/10/01 05:35:22;;;;;;;8.52;2.53;;;;;;;11.29;100.00;99830.13;5055340;28;20118;-58
2022/10/01 05:37:55;;;;;;;6.97;2.45;;;;;;;11.43;100.00;99838.31;5064785;28;20055;-58
2022/10/01 05:40:26;;;;;;;10.25;2.03;;;;;;;11.33;100.00;99833.25;5075413;28;20406;-57
2022/10/01 05:42:54;;;;;;;4.07;1.30;;;;;;;11.50;100.00;99839.25;5074423;28;20056;-58
2022/10/01 05:45:21;;;;;;;5.65;1.70;;;;;;;11.53;100.00;99831.72;5070248;28;20082;-58
2022/10/01 05:47:55;;;;;;;3.20;1.42;;;;;;;11.53;100.00;99836.19;5054855;28;20465;-58
2022/10/01 05:50:23;;;;;;;4.07;1.20;;;;;;;11.60;100.00;99831.81;5052249;28;20098;-58
2022/10/01 05:52:53;;;;;;;3.30;1.20;;;;;;;11.69;100.00;99841.31;4996699;28;20049;-57
2022/10/01 05:55:21;;;;;;;3.88;1.13;;;;;;;11.77;100.00;99832.47;5034694;28;20045;-57
2022/10/01 05:57:56;;;;;;;3.65;1.33;;;;;;;11.84;100.00;99841.34;5038196;28;20045;-57
2022/10/01 06:00:26;;;;;;;2.13;0.93;;;;;;;11.87;99.81;99848.13;5035843;28;20045;-57
2022/10/01 06:02:53;;;;;;;2.13;0.93;;;;;;;11.80;99.78;99853.34;5051141;28;20045;-57
2022/10/01 06:05:20;;;;;;;3.70;0.90;;;;;;;11.80;100.00;99842.72;5040689;28;20045;-57
2022/10/01 06:07:48;;;;;;;4.55;1.70;;;;;;;11.87;100.00;99850.78;5017395;28;20091;-57
2022/10/01 06:10:16;;;;;;;1.60;0.90;;;;;;;11.93;100.00;99855.38;5034790;28;20049;-57
2022/10/01 06:12:43;;;;;;;4.68;1.10;;;;;;;11.87;100.00;99859.56;5034900;28;20065;-57
2022/10/01 06:15:11;;;;;;;1.65;0.77;;;;;;;11.95;100.00;99855.19;5034459;28;20107;-57
2022/10/01 06:17:43;;;;;;;1.83;0.85;;;;;;;12.01;99.97;99862.44;5053946;28;20051;-57
2022/10/01 06:20:12;;;;;;;1.55;0.75;;;;;;;11.95;99.22;99872.00;5054019;28;20136;-57
2022/10/01 06:22:42;;;;;;;1.52;0.75;;;;;;;11.84;100.00;99880.38;5051684;28;20049;-57
2022/10/01 06:25:12;;;;;;;3.78;0.73;;;;;;;12.01;100.00;99881.06;5034520;28;20037;-56
2022/10/01 06:27:38;;;;;;;1.55;0.60;;;;;;;12.02;99.60;99883.50;5033934;28;20059;-59
2022/10/01 06:30:06;;;;;;;1.40;0.55;;;;;;;12.02;100.00;99885.34;5038582;28;20053;-57
2022/10/01 06:32:33;;;;;;;0.77;0.63;;;;;;;12.04;99.96;99878.00;5053904;28;20067;-57
2022/10/01 06:35:03;;;;;;;3.80;0.85;;;;;;;12.03;100.00;99882.50;5035997;28;20037;-58
2022/10/01 06:37:30;;;;;;;1.52;0.80;;;;;;;12.06;100.00;99886.63;5000648;28;20050;-58
2022/10/01 06:39:57;;;;;;;2.60;0.82;;;;;;;12.18;100.00;99873.69;5016443;28;20047;-57
2022/10/01 06:42:23;;;;;;;3.15;0.90;;;;;;;12.11;100.00;99876.25;5017066;28;20159;-57
2022/10/01 06:44:50;;;;;;;2.58;1.00;;;;;;;12.14;100.00;99877.75;5053765;28;20087;-57
2022/10/01 06:47:17;;;;;;;2.38;1.00;;;;;;;12.14;100.00;99870.59;5035784;28;20046;-57
2022/10/01 06:49:44;;;;;;;6.03;0.85;;;;;;;12.25;99.64;99877.25;5034399;28;20533;-57
2022/10/01 06:55:00;;;;;;;1.88;0.80;;;;;;;12.32;99.36;99874.69;5033388;28;20055;-57
2022/10/01 06:57:27;;;;;;;5.32;1.00;;;;;;;12.43;99.03;99879.53;5033240;28;20403;-57
2022/10/01 06:59:54;;;;;;;2.17;0.80;;;;;;;12.29;99.26;99878.53;5033839;28;20061;-58
2022/10/01 07:02:26;;;;;;;3.47;0.90;;;;;;;12.31;99.87;99876.50;5033238;28;20049;-57
2022/10/01 07:04:57;;;;;;;2.63;0.90;;;;;;;12.40;98.75;99877.22;5031403;28;20442;-57
2022/10/01 07:07:29;;;;;;;5.43;0.83;;;;;;;12.43;98.17;99879.53;5033087;28;20422;-57
2022/10/01 07:09:57;;;;;;;4.97;1.30;;;;;;;12.44;98.33;99883.81;5023144;28;20042;-57
2022/10/01 07:12:25;;;;;;;2.78;0.80;;;;;;;12.48;99.30;99885.94;5042010;28;20049;-57
2022/10/01 07:14:52;;;;;;;3.67;1.00;;;;;;;12.58;98.52;99895.44;5036098;28;20124;-57
2022/10/01 07:17:20;;;;;;;5.07;0.95;;;;;;;12.54;98.76;99897.66;5033843;28;20171;-58
2022/10/01 07:19:47;;;;;;;3.60;1.20;;;;;;;12.53;99.02;99898.66;5035552;28;20041;-57
2022/10/01 07:22:13;;;;;;;2.88;1.00;;;;;;;12.53;98.56;99901.31;5050567;28;20048;-58
2022/10/01 07:24:40;;;;;;;2.78;0.93;;;;;;;12.59;97.64;99905.91;5053001;28;20043;-56
2022/10/01 07:27:07;;;;;;;3.72;0.98;;;;;;;12.67;97.85;99894.31;5050797;28;20055;-56
2022/10/01 07:29:33;;;;;;;1.20;0.85;;;;;;;12.71;97.29;99894.75;5037420;28;20454;-58
2022/10/01 07:32:01;;;;;;;1.92;1.02;;;;;;;12.70;97.68;99904.59;5045731;28;20041;-57
2022/10/01 07:34:30;;;;;;;3.40;0.82;;;;;;;12.58;99.23;99919.38;5032255;28;20041;-57
2022/10/01 07:36:56;;;;;;;2.72;1.00;;;;;;;12.48;100.00;99917.84;5032828;28;20116;-57
2022/10/01 07:39:23;;;;;;;3.92;1.10;;;;;;;12.44;100.00;99921.06;5035357;28;20053;-57
2022/10/01 07:41:50;;;;;;;2.78;0.90;;;;;;;12.56;100.00;99922.22;5033792;28;20099;-57
2022/10/01 07:44:18;;;;;;;3.13;0.88;;;;;;;12.53;100.00;99933.25;5032855;28;20056;-57
2022/10/01 07:46:46;;;;;;;3.72;1.20;;;;;;;12.43;100.00;99933.53;5032430;28;20483;-57
2022/10/01 07:49:13;;;;;;;2.67;1.05;;;;;;;12.58;100.00;99941.50;5032551;28;20107;-57
2022/10/01 07:51:42;;;;;;;2.35;0.90;;;;;;;12.39;100.00;99955.38;5013345;28;20045;-56
2022/10/01 07:54:09;;;;;;;2.50;1.17;;;;;;;12.54;100.00;99945.53;5050629;28;20394;-56
2022/10/01 07:56:36;;;;;;;4.53;1.13;;;;;;;12.52;100.00;99942.25;5032997;28;20053;-56
2022/10/01 07:59:02;;;;;;;2.80;1.10;;;;;;;12.71;100.00;99948.78;5036491;28;20045;-57
2022/10/01 08:01:30;;;;;;;3.85;1.40;;;;;;;12.62;100.00;99953.41;5033090;28;20058;-51
2022/10/01 08:03:57;;;;;;;3.63;1.60;;;;;;;12.61;100.00;99946.44;5031383;28;20096;-50
2022/10/01 08:06:24;;;;;;;5.97;1.55;;;;;;;12.71;100.00;99942.66;5034314;28;20050;-51
2022/10/01 08:08:51;;;;;;;7.28;1.40;;;;;;;12.87;100.00;99942.44;5035674;28;20045;-50
2022/10/01 08:11:19;;;;;;;3.78;1.48;;;;;;;12.86;100.00;99944.28;5033106;28;20091;-51
2022/10/01 08:13:46;;;;;;;4.75;1.50;;;;;;;12.85;100.00;99949.78;5032500;28;20056;-49
2022/10/01 08:16:13;;;;;;;4.25;1.30;;;;;;;12.98;100.00;99943.78;5013468;28;20044;-51
2022/10/01 08:18:40;;;;;;;4.68;1.50;;;;;;;13.08;100.00;99954.94;5031028;28;20541;-49
2022/10/01 08:21:07;;;;;;;4.03;1.50;;;;;;;13.20;99.88;99952.59;5030957;28;20660;-51
2022/10/01 08:23:35;;;;;;;4.00;1.48;;;;;;;13.28;99.76;99957.81;5030978;28;20523;-50
2022/10/01 08:26:06;;;;;;;5.53;1.48;;;;;;;13.41;99.33;99962.47;5030891;28;20470;-51
2022/10/01 08:28:34;;;;;;;6.55;1.38;;;;;;;13.53;98.63;99963.56;5030452;28;20041;-50
2022/10/01 08:31:06;;;;;;;2.35;1.20;;;;;;;13.48;97.90;99968.66;5030454;28;20095;-51
2022/10/01 08:33:33;;;;;;;5.03;1.40;;;;;;;13.52;97.62;99964.59;5032863;28;20045;-52
2022/10/01 08:36:01;;;;;;;5.25;1.38;;;;;;;13.61;98.21;99970.63;5036490;28;20061;-50
2022/10/01 08:38:29;;;;;;;4.22;1.30;;;;;;;13.41;98.34;99979.25;5036236;28;20069;-52
2022/10/01 08:40:59;;;;;;;4.03;1.23;;;;;;;13.45;99.57;99979.69;5036535;28;20049;-51
2022/10/01 08:43:33;;;;;;;4.13;1.38;;;;;;;13.50;99.52;99987.09;5019125;28;20133;-51
2022/10/01 08:46:05;;;;;;;5.78;1.52;;;;;;;13.58;98.24;99984.31;5036353;28;20048;-51
2022/10/01 08:48:58;;;;;;;5.00;1.70;;;;;;;13.53;98.91;99989.41;5035983;28;20056;-51
2022/10/01 08:51:42;;;;;;;4.38;1.55;;;;;;;13.41;98.81;99997.91;4998165;28;21143;-51
2022/10/01 08:54:32;;;;;;;5.40;1.63;;;;;;;13.51;98.67;99994.91;5036237;28;20042;-50
2022/10/01 08:57:02;;;;;;;8.45;1.80;;;;;;;13.53;99.59;99992.88;5018197;28;20431;-51
2022/10/01 08:59:50;;;;;;;3.78;1.50;;;;;;;13.59;99.64;99996.63;5034350;28;20610;-49
2022/10/01 09:02:38;;;;;;;5.43;1.80;;;;;;;13.78;99.54;99997.81;5026593;28;20129;-51
2022/10/01 09:05:30;;;;;;;5.20;1.60;;;;;;;13.78;98.74;99989.81;5034973;28;20069;-51
2022/10/01 09:08:43;;;;;;;5.45;1.75;;;;;;;13.66;99.46;99991.34;5054374;28;20041;-48
2022/10/01 09:11:20;;;;;;;8.40;2.08;;;;;;;13.71;97.64;100002.25;5054468;28;20517;-52
2022/10/01 09:17:25;;;;;;;5.50;1.90;;;;;;;13.50;100.00;100011.94;5109763;27;20125;-49
2022/10/01 09:20:22;;;;;;;9.45;2.95;;;;;;;13.44;100.00;100016.19;5087810;28;20067;-50
2022/10/01 09:25:44;;;;;;;8.35;2.10;;;;;;;13.43;100.00;100019.03;5109566;27;20844;-51
2022/10/01 09:28:15;;;;;;;7.75;2.17;;;;;;;13.38;100.00;100024.09;5109790;28;20069;-51
2022/10/01 09:30:49;;;;;;;8.23;3.03;;;;;;;13.30;100.00;100025.03;5110015;28;20048;-51
2022/10/01 09:33:19;;;;;;;8.52;2.20;;;;;;;13.27;100.00;100021.91;5109842;28;20131;-52
2022/10/01 09:36:09;;;;;;;9.60;2.60;;;;;;;13.36;100.00;100021.63;5108933;28;20485;-49
2022/10/01 09:38:40;;;;;;;12.20;2.60;;;;;;;13.25;100.00;100022.91;5102265;28;20044;-49
2022/10/01 09:41:09;;;;;;;10.10;2.67;;;;;;;13.36;100.00;100037.59;5107505;28;20036;-52
2022/10/01 09:43:38;;;;;;;8.27;2.40;;;;;;;13.48;100.00;100035.28;5102667;28;20040;-50
2022/10/01 09:46:12;;;;;;;9.15;2.50;;;;;;;13.58;100.00;100034.94;5103908;28;20157;-49
2022/10/01 09:48:46;;;;;;;8.88;2.65;;;;;;;13.52;100.00;100035.72;5119192;28;20126;-51
2022/10/01 09:51:17;;;;;;;9.20;2.30;;;;;;;13.61;100.00;100038.06;5068271;27;20039;-48
2022/10/01 09:53:56;;;;;;;8.25;2.30;;;;;;;13.56;100.00;100029.81;5115041;27;20485;-49
2022/10/01 09:56:29;;;;;;;8.98;2.20;;;;;;;13.58;100.00;100026.94;5119944;27;20045;-48
2022/10/01 09:59:03;;;;;;;6.40;2.17;;;;;;;13.58;100.00;100021.63;5106242;28;20512;-50
2022/10/01 10:01:49;;;;;;;12.77;3.20;;;;;;;13.66;100.00;100032.16;5104912;28;20098;-51
2022/10/01 10:04:22;;;;;;;10.10;3.15;;;;;;;13.86;100.00;100037.66;5106471;27;20048;-50
2022/10/01 10:06:52;;;;;;;13.90;3.03;;;;;;;13.96;100.00;100048.00;5119030;27;20096;-58
2022/10/01 10:09:26;;;;;;;5.22;2.10;;;;;;;13.98;99.46;100045.97;5096515;28;20526;-59
2022/10/01 10:11:55;;;;;;;6.13;2.17;;;;;;;14.01;100.00;100049.06;5121606;27;20043;-58
2022/10/01 10:14:30;;;;;;;11.00;3.22;;;;;;;14.31;98.53;100056.03;5116693;28;20085;-57
2022/10/01 10:17:04;;;;;;;7.25;2.00;;;;;;;14.66;95.17;100048.06;5097217;28;20135;-58
2022/10/01 10:19:32;;;;;;;8.30;2.30;;;;;;;14.70;95.05;100049.34;5102197;28;20162;-58
2022/10/01 10:22:23;;;;;;;8.48;2.08;;;;;;;14.55;93.16;100058.25;5096130;27;20566;-58
2022/10/01 10:24:52;;;;;;;7.27;1.80;;;;;;;15.13;90.26;100057.94;5103338;28;20044;-58
2022/10/01 10:27:25;;;;;;;8.95;2.00;;;;;;;17.34;80.36;100065.78;5108918;28;20033;-58
2022/10/01 10:30:13;;;;;;;10.57;2.30;;;;;;;19.36;70.74;100073.38;5094750;28;20564;-70
2022/10/01 10:32:41;;;;;;;8.95;2.40;;;;;;;20.52;65.05;100078.34;5090779;28;20048;-70
2022/10/01 10:35:14;;;;;;;5.63;2.00;;;;;;;20.78;63.01;100091.59;5089986;28;20063;-70
2022/10/01 10:37:48;;;;;;;10.68;2.65;;;;;;;21.57;60.72;100089.09;5090067;28;20110;-71
2022/10/01 10:40:19;;;;;;;10.07;3.15;;;;;;;20.49;60.97;100094.16;5083135;28;20126;-70
2022/10/01 10:42:50;;;;;;;10.73;2.65;;;;;;;20.38;61.88;100086.91;5057297;28;20040;-67
2022/10/01 10:45:20;;;;;;;10.95;3.30;;;;;;;20.67;62.95;100096.75;5088237;28;20486;-59
2022/10/01 10:47:50;;;;;;;18.48;3.70;;;;;;;20.84;63.41;100096.84;5104667;27;20043;-57
2022/10/01 10:50:28;;;;;;;40.65;4.07;;;;;;;21.55;61.93;100098.50;5084619;28;20040;-56
2022/10/01 10:52:56;;;;;;;13.10;2.85;;;;;;;20.35;63.56;100112.44;5044220;28;20398;-58
2022/10/01 10:55:29;;;;;;;11.45;3.08;;;;;;;20.18;65.13;100100.72;5078415;28;20044;-56
2022/10/01 10:58:13;;;;;;;10.15;3.00;;;;;;;20.11;63.98;100117.78;5065822;28;20053;-56
2022/10/01 11:00:47;;;;;;;10.98;3.10;;;;;;;21.13;63.64;100115.75;5099456;28;20044;-55
2022/10/01 11:03:16;;;;;;;14.85;3.42;;;;;;;20.44;62.72;100104.81;5100039;28;20040;-57
2022/10/01 11:05:43;;;;;;;15.55;3.60;;;;;;;19.98;65.82;100103.75;5081667;28;20097;-57
2022/10/01 11:08:17;;;;;;;12.90;3.58;;;;;;;18.68;69.08;100109.31;5091518;28;20068;-43
2022/10/01 11:11:19;;;;;;;16.02;3.45;;;;;;;17.80;72.54;100112.91;5085092;28;20516;-43
2022/10/01 11:14:27;;;;;;;18.55;3.53;;;;;;;17.62;72.09;100119.00;5090733;28;21338;-43
2022/10/01 11:17:20;;;;;;;13.68;3.63;;;;;;;17.19;73.38;100127.69;5092305;28;20044;-44
2022/10/01 11:20:28;;;;;;;16.17;3.47;;;;;;;16.66;76.62;100124.09;5081799;28;20039;-43
2022/10/01 11:23:17;;;;;;;15.35;3.90;;;;;;;16.63;78.20;100121.84;5081666;28;20045;-43
2022/10/01 11:26:00;;;;;;;14.25;3.67;;;;;;;16.58;77.11;100121.63;5095139;28;20092;-43
2022/10/01 11:31:42;;;;;;;15.82;4.18;;;;;;;18.78;68.23;100120.34;5126183;27;20414;-43
2022/10/01 11:34:31;;;;;;;18.80;3.30;;;;;;;18.93;66.55;100122.69;5108123;28;20428;-43
2022/10/01 11:37:28;;;;;;;10.80;2.90;;;;;;;19.32;65.86;100123.28;5102340;28;20075;-42
2022/10/01 11:39:59;;;;;;;11.98;3.80;;;;;;;18.58;67.55;100117.06;5093838;28;20052;-42
2022/10/01 11:42:34;;;;;;;10.40;3.33;;;;;;;18.73;67.48;100132.81;5090206;28;20135;-42
2022/10/01 11:45:10;;;;;;;15.50;3.30;;;;;;;18.08;68.35;100139.41;5107285;28;20062;-42
2022/10/01 11:47:43;;;;;;;13.57;3.13;;;;;;;18.69;67.33;100132.44;5090938;28;20140;-51
2022/10/01 11:50:18;;;;;;;14.77;3.05;;;;;;;18.05;65.75;100147.06;5109476;28;20061;-42
2022/10/01 11:53:17;;;;;;;17.65;3.55;;;;;;;17.96;67.08;100141.94;5044442;28;20059;-41
2022/10/01 11:58:51;;;;;;;12.85;2.80;;;;;;;18.41;63.43;100149.84;5106098;28;20055;-53